Elmwood Park, Illinois
Current Conditions -  °F | °C
As of 4:51 AM on Friday 24 Oct 2014 (Local Time) from KORD Reporting Station
Overcast Overcast  
Wind Chill: 53°   Ceiling: 2700
Heat Index: 53°   Visibility: 10mi
Dew Point: 44°   Wind: 5mph
Humidity: 71%   Direction: 230°SW
Pressure: 30.05"   Gusts: NA
Location:  41.93°N, 87.82°W
Report Text: KORD 240951Z 23004KT 10SM OVC027 12/07 A3005 RMK AO2 SLP176 T01170067 $
Loading
Personal Weather Stations






























Interactive Weather Map
Tropical Storm Tracking
New forecast layout! Learn more

10-Day Weather Forecast

Advertisements
Track Severe Weather on mobile